Time;durP1;ratioP1;P1;durP2;ratioP2;P2;SDS_P1;SDS_P2;PMS_P1;PMS_P2;Temp;Humidity;BMP_temperature;BMP_pressure;BME280_temperature;BME280_humidity;BME280_pressure;Samples;Min_cycle;Max_cycle;Signal;HPM_P1;HPM_P2
2021/12/23 00:01:43;;;;;;;11.30;5.57;;;-2.00;99.90;;;-2.09;94.65;101102.19;4972958;28;20427;-65
2021/12/23 00:04:13;;;;;;;1.45;1.10;;;-1.90;99.90;;;-2.12;94.54;101097.09;4972818;28;20730;-65
2021/12/23 00:06:43;;;;;;;6.68;4.05;;;-1.90;99.90;;;-2.04;94.66;101092.72;4971541;28;20656;-65
2021/12/23 00:09:11;;;;;;;1.65;1.25;;;-1.90;99.90;;;-2.04;93.74;101089.28;4970592;28;20664;-65
2021/12/23 00:11:39;;;;;;;3.80;2.90;;;-1.90;99.90;;;-2.10;94.73;101086.84;4970095;28;20228;-64
2021/12/23 00:14:09;;;;;;;5.88;2.85;;;-2.00;99.90;;;-2.08;94.75;101079.97;4972095;28;20201;-65
2021/12/23 00:16:45;;;;;;;4.60;3.63;;;-2.00;99.90;;;-2.09;94.92;101070.63;4972359;28;20239;-65
2021/12/23 00:19:35;;;;;;;6.82;3.00;;;-2.00;99.90;;;-2.17;94.74;101067.34;4974876;28;20691;-65
2021/12/23 00:24:50;;;;;;;7.63;3.30;;;-2.00;99.90;;;-2.17;94.81;101052.84;4952098;28;20239;-65
2021/12/23 00:27:17;;;;;;;10.40;5.00;;;-2.00;99.90;;;-2.18;95.54;101051.16;4952014;28;20204;-65
2021/12/23 00:29:44;;;;;;;4.13;2.58;;;-2.10;99.90;;;-2.19;95.29;101044.34;4952936;28;20250;-65
2021/12/23 00:32:11;;;;;;;1.17;0.90;;;-2.10;99.90;;;-2.25;95.34;101041.88;4966579;28;20211;-65
2021/12/23 00:34:38;;;;;;;8.55;1.77;;;-2.10;99.90;;;-2.26;95.36;101040.19;4972071;28;20218;-66
2021/12/23 00:37:09;;;;;;;3.35;2.83;;;-2.10;99.90;;;-2.32;96.04;101037.69;4969362;28;20203;-65
2021/12/23 00:39:36;;;;;;;13.75;6.95;;;-2.20;99.90;;;-2.31;95.80;101031.72;4971251;28;20212;-65
2021/12/23 00:42:06;;;;;;;6.82;4.05;;;-2.20;99.90;;;-2.28;95.07;101036.81;4970069;28;20200;-65
2021/12/23 00:44:36;;;;;;;11.63;4.03;;;-2.20;99.90;;;-2.41;95.29;101041.22;4970303;28;20204;-63
2021/12/23 00:47:03;;;;;;;2.38;2.28;;;-2.20;99.90;;;-2.41;96.16;101037.84;4970208;28;20204;-65
2021/12/23 00:49:31;;;;;;;3.67;2.33;;;-2.20;99.90;;;-2.38;96.05;101042.88;4971138;28;20239;-65
2021/12/23 00:51:58;;;;;;;2.17;1.85;;;-2.20;99.90;;;-2.43;95.81;101040.38;4971164;28;20196;-65
2021/12/23 00:54:25;;;;;;;3.67;2.30;;;-2.30;99.90;;;-2.40;96.01;101048.03;4971291;28;20203;-64
2021/12/23 00:56:52;;;;;;;4.30;2.30;;;-2.30;99.90;;;-2.41;96.29;101042.94;4970332;28;20223;-65
2021/12/23 00:59:19;;;;;;;1.95;1.85;;;-2.30;99.90;;;-2.38;96.13;101043.75;4972059;28;20294;-64
2021/12/23 01:01:47;;;;;;;1.20;0.70;;;-2.30;99.90;;;-2.33;96.07;101047.94;4971124;28;20581;-65
2021/12/23 01:04:15;;;;;;;6.82;2.38;;;-2.20;99.90;;;-2.40;95.49;101039.50;4971658;28;20279;-65
2021/12/23 01:06:42;;;;;;;1.52;1.35;;;-2.30;99.90;;;-2.44;95.90;101046.38;4970966;28;20234;-65
2021/12/23 01:09:09;;;;;;;1.50;1.50;;;-2.30;99.90;;;-2.44;95.47;101043.81;4970560;28;20664;-65
2021/12/23 01:11:37;;;;;;;4.22;1.98;;;-2.30;99.90;;;-2.43;95.88;101048.06;4969955;28;20693;-65
2021/12/23 01:17:12;;;;;;;3.35;2.38;;;-2.30;99.90;;;-2.38;95.61;101045.44;4970731;28;20204;-65
2021/12/23 01:19:40;;;;;;;8.48;4.40;;;-2.30;99.90;;;-2.39;96.10;101031.00;4969502;28;20577;-65
2021/12/23 01:22:08;;;;;;;3.53;2.38;;;-2.30;99.90;;;-2.38;95.59;101030.13;4970923;28;20316;-65
2021/12/23 01:24:35;;;;;;;4.07;2.13;;;-2.30;99.90;;;-2.38;95.47;101020.75;4969538;28;20227;-64
2021/12/23 01:27:02;;;;;;;1.23;1.20;;;-2.30;99.90;;;-2.33;95.08;101018.13;4971245;28;20207;-65
2021/12/23 01:32:07;;;;;;;2.13;1.30;;;-2.30;99.90;;;-2.47;95.41;101007.25;5028131;28;20217;-70
2021/12/23 01:34:36;;;;;;;4.20;2.65;;;-2.30;99.90;;;-2.47;95.82;101009.81;5028956;28;20198;-69
2021/12/23 01:37:05;;;;;;;5.22;1.77;;;-2.30;99.90;;;-2.46;96.25;101008.94;5013131;28;20213;-70
2021/12/23 01:39:33;;;;;;;5.57;3.00;;;-2.30;99.90;;;-2.49;95.92;101009.81;4995084;28;20216;-70
2021/12/23 01:42:00;;;;;;;7.63;3.90;;;-2.30;99.90;;;-2.43;96.32;100998.69;5013576;28;20329;-70
2021/12/23 01:44:27;;;;;;;2.78;2.58;;;-2.30;99.90;;;-2.47;95.91;100997.03;5010135;28;20236;-69
2021/12/23 01:46:54;;;;;;;1.20;1.02;;;-2.30;99.90;;;-2.49;96.17;101006.41;5025439;28;20218;-70
2021/12/23 01:49:21;;;;;;;1.05;1.05;;;-2.30;99.90;;;-2.46;95.94;101003.81;5032387;28;20765;-67
2021/12/23 01:51:48;;;;;;;6.53;2.85;;;-2.30;99.90;;;-2.46;95.86;101006.38;5013542;28;20242;-70
2021/12/23 01:54:15;;;;;;;9.60;4.97;;;-2.30;99.90;;;-2.48;95.66;100991.06;5013724;28;20218;-70
2021/12/23 01:56:42;;;;;;;5.88;3.40;;;-2.30;99.90;;;-2.41;96.07;100991.84;5011673;28;20199;-70
2021/12/23 01:59:09;;;;;;;4.10;2.78;;;-2.30;99.90;;;-2.40;95.54;100991.81;5012106;28;20224;-69
2021/12/23 02:01:41;;;;;;;4.30;3.70;;;-2.30;99.90;;;-2.40;95.59;100978.19;5026389;28;20226;-70
2021/12/23 02:04:08;;;;;;;2.58;2.40;;;-2.20;99.90;;;-2.40;95.50;100973.06;5012115;28;20357;-70
2021/12/23 02:06:35;;;;;;;2.50;2.30;;;-2.20;99.90;;;-2.38;95.03;100966.22;5011700;28;20218;-70
2021/12/23 02:09:03;;;;;;;4.70;3.08;;;-2.20;99.90;;;-2.42;95.59;100960.31;5012382;28;20199;-70
2021/12/23 02:11:31;;;;;;;2.20;1.85;;;-2.20;99.90;;;-2.38;95.33;100956.00;5011490;28;20218;-70
2021/12/23 02:13:58;;;;;;;11.68;4.78;;;-2.10;99.90;;;-2.37;94.42;100947.50;4994653;28;20199;-70
2021/12/23 02:16:25;;;;;;;11.43;5.43;;;-2.20;99.90;;;-2.38;95.17;100938.13;5007611;28;20290;-70
2021/12/23 02:18:52;;;;;;;5.45;3.10;;;-2.20;99.90;;;-2.30;95.24;100944.00;5013339;28;20313;-67
2021/12/23 02:21:19;;;;;;;3.65;2.45;;;-2.10;99.90;;;-2.21;94.17;100953.19;5011589;28;20253;-69
2021/12/23 02:23:46;;;;;;;10.63;1.52;;;-2.00;99.90;;;-2.21;94.10;100948.94;5012692;28;20572;-67
2021/12/23 02:26:12;;;;;;;4.68;1.80;;;-2.00;99.90;;;-2.19;93.50;100947.19;5013540;28;20229;-70
2021/12/23 02:28:39;;;;;;;3.45;2.35;;;-2.00;99.90;;;-2.21;93.73;100942.97;5009292;28;20289;-70
2021/12/23 02:31:06;;;;;;;5.47;2.42;;;-2.00;99.90;;;-2.13;93.41;100942.00;5004220;28;20239;-67
2021/12/23 02:33:34;;;;;;;1.58;1.30;;;-1.90;99.90;;;-2.10;93.26;100939.41;5012384;28;20206;-69
2021/12/23 02:36:01;;;;;;;5.43;3.42;;;-1.90;99.90;;;-2.06;93.38;100938.47;5011633;28;20225;-70
2021/12/23 02:38:29;;;;;;;5.30;2.45;;;-1.90;99.90;;;-2.04;92.68;100926.50;5012012;28;20205;-69
2021/12/23 02:40:56;;;;;;;0.70;0.70;;;-1.90;99.90;;;-2.03;92.02;100930.78;5011713;28;20234;-70
2021/12/23 02:43:26;;;;;;;1.73;1.48;;;-1.90;99.90;;;-2.03;92.42;100933.34;5004495;28;20202;-69
2021/12/23 02:45:59;;;;;;;11.82;3.75;;;-1.90;99.90;;;-2.00;93.11;100933.25;5011577;28;20218;-69
2021/12/23 02:48:32;;;;;;;8.88;4.45;;;-1.90;99.90;;;-1.98;92.15;100926.41;5023590;28;20203;-70
2021/12/23 02:51:00;;;;;;;3.45;2.45;;;-1.80;99.90;;;-1.94;91.69;100930.59;5010963;28;20222;-70
2021/12/23 02:53:27;;;;;;;4.70;1.17;;;-1.80;99.90;;;-1.89;92.28;100925.41;5011448;28;20580;-70
2021/12/23 02:55:56;;;;;;;11.85;4.25;;;-1.80;99.90;;;-1.89;91.61;100926.28;5013166;28;20797;-70
2021/12/23 02:58:24;;;;;;;1.63;0.85;;;-1.70;99.90;;;-1.84;91.40;100919.38;5012826;28;20202;-69
2021/12/23 03:00:53;;;;;;;6.32;4.20;;;-1.70;99.90;;;-1.87;92.23;100921.13;5013473;28;20281;-70
2021/12/23 03:03:21;;;;;;;12.60;2.03;;;-1.70;99.90;;;-1.85;91.51;100920.22;5006561;28;20554;-70
2021/12/23 03:05:57;;;;;;;1.10;1.10;;;-1.70;99.90;;;-1.83;91.96;100926.16;5008230;28;20230;-67
2021/12/23 03:08:29;;;;;;;4.75;2.85;;;-1.70;99.90;;;-1.83;91.25;100926.16;5008790;28;20195;-70
2021/12/23 03:10:56;;;;;;;6.28;3.20;;;-1.70;99.90;;;-1.76;90.41;100930.31;5027919;28;20715;-70
2021/12/23 03:13:23;;;;;;;2.83;2.53;;;-1.60;99.90;;;-1.79;90.83;100916.75;5015592;28;20554;-70
2021/12/23 03:15:50;;;;;;;3.80;2.10;;;-1.60;99.90;;;-1.80;90.13;100910.78;5010832;28;20579;-70
2021/12/23 03:18:17;;;;;;;4.32;3.38;;;-1.60;99.90;;;-1.75;91.08;100910.69;5022330;28;20207;-71
2021/12/23 03:20:44;;;;;;;1.27;1.27;;;-1.60;99.90;;;-1.82;91.05;100914.22;5011918;28;20233;-70
2021/12/23 03:23:11;;;;;;;4.18;1.83;;;-1.70;99.90;;;-1.76;90.45;100907.28;5003302;28;20292;-70
2021/12/23 03:25:38;;;;;;;7.40;2.67;;;-1.60;99.90;;;-1.80;90.04;100910.78;5011606;28;20217;-70
2021/12/23 03:28:05;;;;;;;0.95;0.82;;;-1.60;99.90;;;-1.87;90.44;100909.19;5011778;28;20685;-70
2021/12/23 03:30:32;;;;;;;1.10;1.10;;;-1.70;99.90;;;-1.84;90.20;100898.91;5012985;28;20248;-70
2021/12/23 03:32:59;;;;;;;10.40;4.97;;;-1.70;99.90;;;-1.85;91.32;100891.25;5009342;28;20212;-70
2021/12/23 03:35:26;;;;;;;5.18;3.25;;;-1.70;99.90;;;-1.88;90.58;100879.38;5010482;28;20285;-70
2021/12/23 03:37:54;;;;;;;2.42;2.20;;;-1.70;99.90;;;-1.88;90.64;100870.84;5010028;28;20701;-69
2021/12/23 03:40:22;;;;;;;2.25;2.13;;;-1.70;99.90;;;-1.83;90.39;100872.44;5009250;28;20230;-69
2021/12/23 03:42:49;;;;;;;7.75;4.15;;;-1.70;99.90;;;-1.88;90.33;100858.91;5026544;28;20210;-70
2021/12/23 03:45:17;;;;;;;3.45;2.92;;;-1.70;99.90;;;-1.82;90.47;100855.41;4995854;28;20203;-70
2021/12/23 03:47:48;;;;;;;5.28;2.58;;;-1.70;99.90;;;-1.77;90.64;100854.44;5006662;28;20209;-70
2021/12/23 03:50:18;;;;;;;7.97;3.42;;;-1.60;99.90;;;-1.72;89.67;100855.19;4992180;28;20265;-70
2021/12/23 03:52:46;;;;;;;4.35;1.45;;;-1.60;99.90;;;-1.72;89.93;100862.88;4999962;28;20204;-69
2021/12/23 03:55:15;;;;;;;16.00;5.95;;;-1.60;99.90;;;-1.70;89.99;100857.72;4989832;28;20204;-71
2021/12/23 03:57:42;;;;;;;3.78;2.83;;;-1.60;99.90;;;-1.69;90.06;100859.41;4990812;28;20207;-70
2021/12/23 04:00:15;;;;;;;0.93;0.93;;;-1.60;99.90;;;-1.66;90.27;100856.78;4996864;28;20214;-70
2021/12/23 04:02:42;;;;;;;5.65;2.38;;;-1.50;99.90;;;-1.65;90.00;100859.34;5010928;28;20510;-70
2021/12/23 04:05:10;;;;;;;14.65;6.18;;;-1.50;99.90;;;-1.61;89.98;100855.84;5010372;28;20294;-70
2021/12/23 04:07:40;;;;;;;9.23;4.57;;;-1.50;99.90;;;-1.56;89.07;100853.22;5010611;28;20785;-70
2021/12/23 04:10:11;;;;;;;9.20;4.28;;;-1.40;99.90;;;-1.55;89.47;100848.94;5010561;28;20309;-70
2021/12/23 04:12:39;;;;;;;8.63;5.35;;;-1.40;99.90;;;-1.59;89.24;100849.00;5009929;28;20277;-70
2021/12/23 04:15:06;;;;;;;21.65;2.88;;;-1.40;99.90;;;-1.52;88.68;100848.88;5027525;28;20612;-70
2021/12/23 04:17:37;;;;;;;3.92;1.65;;;-1.40;99.90;;;-1.59;89.53;100843.88;5007864;28;20215;-70
2021/12/23 04:20:32;;;;;;;7.20;4.15;;;-1.40;99.90;;;-1.66;89.01;100832.06;5006619;28;20714;-70
2021/12/23 04:22:57;;;;;;;19.13;8.10;;;-1.60;99.90;;;-1.60;89.34;100838.78;5004703;28;20289;-70
2021/12/23 04:25:27;;;;;;;9.27;4.35;;;-1.50;99.90;;;-1.61;89.51;100834.53;5009593;28;20551;-71
2021/12/23 04:27:58;;;;;;;11.20;6.43;;;-1.50;99.90;;;-1.55;89.55;100824.16;5014485;28;20202;-69
2021/12/23 04:30:25;;;;;;;1.17;1.17;;;-1.40;99.90;;;-1.55;88.64;100818.25;5010236;28;20313;-70
2021/12/23 04:32:54;;;;;;;2.78;1.83;;;-1.40;99.90;;;-1.57;88.85;100813.97;4990037;28;20204;-69
2021/12/23 04:35:21;;;;;;;1.42;1.20;;;-1.40;99.90;;;-1.60;88.63;100811.47;5001174;28;20206;-71
2021/12/23 04:37:48;;;;;;;6.63;4.03;;;-1.40;99.90;;;-1.61;88.85;100814.06;5006306;28;20210;-69
2021/12/23 04:40:16;;;;;;;4.65;2.78;;;-1.50;99.90;;;-1.64;88.82;100812.41;4999230;28;20710;-70
2021/12/23 04:42:44;;;;;;;7.72;3.92;;;-1.50;99.90;;;-1.57;88.87;100815.69;5010016;28;20213;-67
2021/12/23 04:45:11;;;;;;;1.95;1.55;;;-1.50;99.90;;;-1.66;89.09;100810.75;5002781;28;20210;-70
2021/12/23 04:47:39;;;;;;;7.07;5.07;;;-1.40;99.90;;;-1.63;89.33;100811.53;5009663;28;20219;-70
2021/12/23 04:50:10;;;;;;;9.23;3.90;;;-1.50;99.90;;;-1.64;90.08;100797.06;5008007;28;20597;-71
2021/12/23 04:52:38;;;;;;;2.38;1.75;;;-1.50;99.90;;;-1.60;89.69;100798.69;5008757;28;20210;-70
2021/12/23 04:55:07;;;;;;;2.83;2.58;;;-1.50;99.90;;;-1.56;89.44;100796.91;5009280;28;20296;-70
2021/12/23 04:57:34;;;;;;;9.65;6.50;;;-1.40;99.90;;;-1.55;89.06;100800.31;5020209;28;20209;-70
2021/12/23 05:00:05;;;;;;;8.48;4.70;;;-1.40;99.90;;;-1.59;88.96;100786.72;5011034;28;20222;-71
2021/12/23 05:02:32;;;;;;;3.35;2.50;;;-1.40;99.90;;;-1.55;89.80;100774.75;5009716;28;20302;-71
2021/12/23 05:04:59;;;;;;;2.75;2.30;;;-1.40;99.90;;;-1.64;90.04;100768.09;5010028;28;20198;-70
2021/12/23 05:07:26;;;;;;;2.75;2.63;;;-1.50;99.90;;;-1.61;89.69;100765.44;5011312;28;20223;-70
2021/12/23 05:09:53;;;;;;;3.05;1.70;;;-1.40;99.90;;;-1.61;89.78;100762.91;5009201;28;20788;-70
2021/12/23 05:12:20;;;;;;;7.78;3.65;;;-1.50;99.90;;;-1.62;90.30;100764.59;5010794;28;20209;-70
2021/12/23 05:14:46;;;;;;;1.52;0.95;;;-1.50;99.90;;;-1.61;89.44;100763.75;5006086;28;20298;-67
2021/12/23 05:17:13;;;;;;;3.15;2.58;;;-1.50;99.90;;;-1.62;89.78;100769.72;5001585;28;20198;-70
2021/12/23 05:19:41;;;;;;;21.98;8.45;;;-1.50;99.90;;;-1.58;89.16;100776.47;5009783;28;20225;-70
2021/12/23 05:22:13;;;;;;;14.52;7.55;;;-1.50;99.90;;;-1.55;89.31;100782.41;5009338;28;20206;-70
2021/12/23 05:24:40;;;;;;;11.45;6.00;;;-1.40;99.90;;;-1.55;89.66;100787.53;5007344;28;20211;-70
2021/12/23 05:27:06;;;;;;;12.50;4.70;;;-1.40;99.90;;;-1.55;89.99;100782.41;5005307;28;20219;-70
2021/12/23 05:29:33;;;;;;;18.60;8.20;;;-1.50;99.90;;;-1.52;88.71;100787.44;5008289;28;20574;-70
2021/12/23 05:32:00;;;;;;;19.80;8.77;;;-1.40;99.90;;;-1.53;89.44;100785.78;5010648;28;20345;-71
2021/12/23 05:34:27;;;;;;;14.32;7.40;;;-1.40;99.90;;;-1.52;89.10;100777.22;5008992;28;20191;-70
2021/12/23 05:36:54;;;;;;;13.38;4.43;;;-1.40;99.90;;;-1.52;88.84;100772.09;5009426;28;20194;-71
2021/12/23 05:39:21;;;;;;;0.77;0.65;;;-1.40;99.90;;;-1.63;88.28;100770.59;5003683;28;20195;-69
2021/12/23 05:41:48;;;;;;;2.80;2.53;;;-1.50;99.90;;;-1.65;88.34;100772.34;5000659;28;20232;-70
2021/12/23 05:44:15;;;;;;;3.30;2.75;;;-1.60;99.90;;;-1.73;88.99;100768.28;5009592;28;20589;-71
2021/12/23 05:46:42;;;;;;;4.97;3.55;;;-1.60;99.90;;;-1.82;88.82;100771.84;5009861;28;20310;-70
2021/12/23 05:49:09;;;;;;;6.43;3.58;;;-1.70;99.90;;;-1.82;89.59;100769.28;5008271;28;20203;-71
2021/12/23 05:51:36;;;;;;;11.60;5.50;;;-1.80;99.90;;;-1.82;89.79;100776.13;5006297;28;20419;-70
2021/12/23 05:54:03;;;;;;;12.85;5.18;;;-1.80;99.90;;;-1.83;89.63;100771.88;5010163;28;20586;-70
2021/12/23 05:56:31;;;;;;;3.13;2.53;;;-1.80;99.90;;;-1.87;89.79;100753.19;5007685;28;20238;-70
2021/12/23 05:58:58;;;;;;;3.72;2.80;;;-1.70;99.90;;;-1.85;89.13;100766.78;5009047;28;20202;-70
2021/12/23 06:01:26;;;;;;;7.30;3.33;;;-1.70;99.90;;;-1.86;89.91;100757.44;5009987;28;20233;-71
2021/12/23 06:03:53;;;;;;;9.20;3.72;;;-1.80;99.90;;;-1.89;90.04;100757.47;5011337;28;20207;-70
2021/12/23 06:06:19;;;;;;;4.13;3.72;;;-1.80;99.90;;;-1.93;89.98;100755.84;5006534;28;20222;-70
2021/12/23 06:08:46;;;;;;;2.67;1.63;;;-1.80;99.90;;;-1.92;89.52;100744.78;5009691;28;20668;-70
2021/12/23 06:11:13;;;;;;;9.50;3.47;;;-1.80;99.90;;;-1.91;90.46;100741.34;5008025;28;20698;-70
2021/12/23 06:13:41;;;;;;;6.25;3.53;;;-1.80;99.90;;;-1.91;89.47;100738.78;5010113;28;20203;-70
2021/12/23 06:16:08;;;;;;;2.38;1.20;;;-1.80;99.90;;;-1.99;90.38;100744.91;5009368;28;20202;-70
2021/12/23 06:18:36;;;;;;;1.95;1.40;;;-1.80;99.90;;;-2.03;90.19;100733.91;5009960;28;20234;-69
2021/12/23 06:21:03;;;;;;;6.95;3.88;;;-1.90;99.90;;;-2.02;89.99;100737.31;5008462;28;20225;-71
2021/12/23 06:23:31;;;;;;;15.77;7.03;;;-1.90;99.90;;;-2.00;90.72;100746.63;5010965;28;20214;-69
2021/12/23 06:25:58;;;;;;;10.45;6.22;;;-1.90;99.90;;;-1.98;90.26;100739.75;5004836;28;21801;-69
2021/12/23 06:28:25;;;;;;;9.68;4.75;;;-1.90;99.90;;;-1.97;90.77;100738.91;5012017;28;20644;-70
2021/12/23 06:30:52;;;;;;;1.42;0.77;;;-1.80;99.90;;;-2.04;90.39;100726.25;5011419;28;20234;-67
2021/12/23 06:33:19;;;;;;;4.60;2.00;;;-1.90;99.90;;;-2.02;90.70;100715.13;5013707;28;20655;-70
2021/12/23 06:35:50;;;;;;;12.70;3.22;;;-1.90;99.90;;;-2.07;90.81;100713.53;5010708;28;20286;-69
2021/12/23 06:38:17;;;;;;;3.67;2.45;;;-2.00;99.90;;;-2.05;90.65;100704.97;5013231;28;20203;-71
2021/12/23 06:40:44;;;;;;;2.60;2.40;;;-2.00;99.90;;;-2.09;91.59;100703.34;5014387;28;20256;-70
2021/12/23 06:43:11;;;;;;;7.85;3.22;;;-1.90;99.90;;;-2.15;91.60;100703.44;5013145;28;20216;-70
2021/12/23 06:45:38;;;;;;;13.38;6.15;;;-2.00;99.90;;;-2.08;91.95;100705.03;5013384;28;20225;-70
2021/12/23 06:48:05;;;;;;;12.98;7.05;;;-2.00;99.90;;;-2.01;91.94;100710.84;5012865;28;20317;-71
2021/12/23 06:50:32;;;;;;;10.15;4.88;;;-1.90;99.90;;;-1.99;91.64;100707.41;5002011;28;20231;-70
2021/12/23 06:52:59;;;;;;;5.78;3.28;;;-1.90;99.90;;;-1.91;91.18;100718.31;5007825;28;20695;-71
2021/12/23 06:55:26;;;;;;;0.95;0.93;;;-1.80;99.90;;;-1.95;91.27;100709.03;4992803;28;20225;-70
2021/12/23 06:57:56;;;;;;;3.58;2.05;;;-1.80;99.90;;;-1.90;91.90;100709.78;5004101;28;20205;-69
2021/12/23 07:00:28;;;;;;;16.70;6.72;;;-1.80;99.90;;;-1.84;91.24;100707.09;5014002;28;20236;-71
2021/12/23 07:02:56;;;;;;;0.60;0.60;;;-1.70;99.90;;;-1.82;91.10;100707.91;5006120;28;20230;-70
2021/12/23 07:05:23;;;;;;;10.45;5.90;;;-1.70;99.90;;;-1.79;90.71;100695.03;5009586;28;20207;-71
2021/12/23 07:08:04;;;;;;;5.40;3.85;;;-1.60;99.90;;;-1.82;90.96;100707.06;5011254;28;20353;-68
2021/12/23 07:10:32;;;;;;;9.43;4.95;;;-1.70;99.90;;;-1.80;90.85;100697.63;5012888;28;20309;-70
2021/12/23 07:13:00;;;;;;;15.90;8.52;;;-1.70;99.90;;;-1.81;90.32;100696.78;5011304;28;20203;-70
2021/12/23 07:15:28;;;;;;;16.60;8.55;;;-1.70;99.90;;;-1.76;90.67;100709.50;5012982;28;20207;-70
2021/12/23 07:17:58;;;;;;;15.85;8.23;;;-1.70;99.90;;;-1.73;91.01;100706.88;5006304;28;20203;-69
2021/12/23 07:20:27;;;;;;;8.70;1.63;;;-1.70;99.90;;;-1.74;91.04;100700.06;5013311;28;20309;-70
2021/12/23 07:22:55;;;;;;;11.85;4.95;;;-1.60;99.90;;;-1.79;89.84;100705.28;5011332;28;20214;-70
2021/12/23 07:25:22;;;;;;;17.42;7.80;;;-1.70;99.90;;;-1.77;89.67;100726.53;5011397;28;20206;-70
2021/12/23 07:27:49;;;;;;;20.73;8.35;;;-1.70;99.90;;;-1.77;90.25;100711.19;4992464;28;20245;-70
2021/12/23 07:32:48;;;;;;;2.88;1.55;;;-1.60;99.90;;;-1.83;89.46;100703.66;5030074;28;20222;-65
2021/12/23 07:35:18;;;;;;;14.02;5.90;;;-1.70;99.90;;;-1.75;89.53;100713.75;5031841;28;20670;-64
2021/12/23 07:37:46;;;;;;;21.85;8.35;;;-1.60;99.90;;;-1.67;89.29;100720.38;5032203;28;20663;-64
2021/12/23 07:40:15;;;;;;;11.35;4.30;;;-1.50;99.90;;;-1.71;89.50;100710.25;5011046;28;20198;-64
2021/12/23 07:42:53;;;;;;;7.63;4.88;;;-1.50;99.90;;;-1.62;89.16;100705.75;5018907;28;20222;-64
2021/12/23 07:45:24;;;;;;;9.25;5.15;;;-1.50;99.90;;;-1.57;89.25;100713.34;5019618;28;20238;-64
2021/12/23 07:47:51;;;;;;;7.55;3.38;;;-1.40;99.90;;;-1.58;88.30;100712.50;5005245;28;20225;-64
2021/12/23 07:50:18;;;;;;;10.00;5.72;;;-1.40;99.90;;;-1.53;88.25;100714.16;5013443;28;20198;-64
2021/12/23 07:52:45;;;;;;;1.75;0.82;;;-1.40;99.90;;;-1.58;89.11;100697.13;5011230;28;20197;-64
2021/12/23 07:55:13;;;;;;;1.73;1.67;;;-1.40;99.90;;;-1.54;88.40;100676.63;5011424;28;20203;-64
2021/12/23 07:57:41;;;;;;;1.55;1.45;;;-1.40;99.90;;;-1.53;88.46;100678.31;5015825;28;20216;-64
2021/12/23 08:00:09;;;;;;;10.00;5.25;;;-1.40;99.90;;;-1.49;88.36;100677.38;5022138;28;20226;-64
2021/12/23 08:02:36;;;;;;;3.63;2.58;;;-1.30;99.90;;;-1.47;88.90;100663.66;5028585;28;20242;-64
2021/12/23 08:05:04;;;;;;;1.95;1.10;;;-1.30;99.90;;;-1.41;88.81;100660.13;5025809;28;20586;-64
2021/12/23 08:07:30;;;;;;;1.38;1.00;;;-1.30;99.90;;;-1.41;88.83;100660.13;5029095;28;20245;-63
2021/12/23 08:09:57;;;;;;;1.30;1.25;;;-1.20;99.90;;;-1.45;88.75;100661.06;5019882;28;20581;-64
2021/12/23 08:12:24;;;;;;;2.45;2.30;;;-1.20;99.90;;;-1.41;88.25;100667.81;5015245;28;20229;-64
2021/12/23 08:14:51;;;;;;;5.85;3.45;;;-1.20;99.90;;;-1.44;88.04;100668.69;5030701;28;20206;-64
2021/12/23 08:17:34;;;;;;;9.90;5.45;;;-1.20;99.90;;;-1.31;88.32;100684.63;5021900;28;20654;-63
2021/12/23 08:20:01;;;;;;;19.00;7.97;;;-1.10;99.90;;;-1.10;87.91;100696.94;5002089;28;20213;-64
2021/12/23 08:22:28;;;;;;;14.90;7.00;;;-1.00;99.90;;;-0.93;86.70;100682.84;5013671;28;20701;-63
2021/12/23 08:24:55;;;;;;;3.70;2.40;;;-0.70;99.90;;;-0.86;85.76;100683.53;5025405;28;20332;-64
2021/12/23 08:27:25;;;;;;;4.43;1.60;;;-0.60;99.90;;;-0.73;85.39;100672.13;5019454;28;20222;-64
2021/12/23 08:29:53;;;;;;;0.73;0.73;;;-0.50;99.90;;;-0.64;84.69;100669.31;5020337;28;20206;-63
2021/12/23 08:32:21;;;;;;;3.30;1.65;;;-0.40;99.90;;;-0.74;84.71;100667.84;5007992;28;20249;-64
2021/12/23 08:34:48;;;;;;;1.25;1.25;;;-0.60;99.90;;;-0.68;84.76;100669.44;4992155;28;20241;-64
2021/12/23 08:37:15;;;;;;;7.28;3.20;;;-0.50;99.90;;;-0.69;84.80;100665.19;5026220;28;20202;-64
2021/12/23 08:39:43;;;;;;;5.65;2.53;;;-0.50;99.90;;;-0.74;85.33;100667.00;5011244;28;20586;-67
2021/12/23 08:42:10;;;;;;;2.47;1.85;;;-0.60;99.90;;;-0.74;85.27;100669.56;5016396;28;20680;-64
2021/12/23 08:44:40;;;;;;;6.32;3.78;;;-0.60;99.90;;;-0.87;85.15;100667.31;5019415;28;20436;-64
2021/12/23 08:47:09;;;;;;;5.68;3.00;;;-0.60;99.90;;;-0.88;86.14;100665.66;5023220;28;20348;-64
2021/12/23 08:49:37;;;;;;;2.40;2.13;;;-0.70;99.90;;;-0.96;85.92;100656.47;5024182;28;20206;-64
2021/12/23 08:52:05;;;;;;;5.18;3.38;;;-0.80;99.90;;;-0.93;85.97;100662.34;5010565;28;20226;-65
2021/12/23 08:54:32;;;;;;;6.32;3.13;;;-0.80;99.90;;;-0.98;86.99;100660.81;5005689;28;20202;-64
2021/12/23 08:56:59;;;;;;;3.83;2.45;;;-0.80;99.90;;;-0.94;86.33;100655.53;5011823;28;20705;-65
2021/12/23 08:59:26;;;;;;;6.85;3.22;;;-0.80;99.90;;;-0.88;86.57;100646.88;5020967;28;20309;-63
2021/12/23 09:01:55;;;;;;;4.22;1.85;;;-0.80;99.90;;;-0.80;86.29;100650.09;5023932;28;20218;-64
2021/12/23 09:04:22;;;;;;;3.25;1.98;;;-0.70;99.90;;;-0.76;86.16;100646.56;5023304;28;20207;-63
2021/12/23 09:06:50;;;;;;;6.65;4.53;;;-0.60;99.90;;;-0.75;85.81;100635.44;5023684;28;20241;-63
2021/12/23 09:09:17;;;;;;;4.50;2.28;;;-0.60;99.90;;;-0.65;85.17;100631.75;5024648;28;20630;-63
2021/12/23 09:11:45;;;;;;;2.58;2.15;;;-0.40;99.90;;;-0.66;85.40;100640.31;5029919;28;20228;-63
2021/12/23 09:14:13;;;;;;;2.40;2.20;;;-0.50;99.90;;;-0.63;85.55;100642.81;5026058;28;20294;-61
2021/12/23 09:16:40;;;;;;;3.25;1.38;;;-0.50;99.90;;;-0.52;84.48;100632.28;5023652;28;20203;-64
2021/12/23 09:19:07;;;;;;;24.90;11.30;;;-0.30;99.90;;;-0.44;84.80;100640.59;5018326;28;20932;-66
2021/12/23 09:21:36;;;;;;;2.70;1.83;;;-0.20;99.90;;;-0.42;84.45;100629.41;5015756;28;20230;-64
2021/12/23 09:24:04;;;;;;;9.30;3.15;;;-0.20;99.90;;;-0.44;84.18;100627.78;5012665;28;20205;-64
2021/12/23 09:26:35;;;;;;;6.28;3.38;;;-0.20;99.90;;;-0.35;84.31;100627.53;4991916;28;20206;-64
2021/12/23 09:32:38;;;;;;;6.22;4.28;;;-0.20;99.90;;;-0.36;84.93;100624.13;4998803;28;20210;-64
2021/12/23 09:34:42;;;;;;;7.70;4.45;;;-0.10;99.90;;;-0.37;84.52;100625.03;5019217;28;20564;-64
2021/12/23 09:37:09;;;;;;;6.82;2.47;;;-0.20;99.90;;;-0.43;85.08;100637.16;5012747;28;20570;-64
2021/12/23 09:39:36;;;;;;;2.50;2.30;;;-0.20;99.90;;;-0.49;85.11;100633.03;5013726;28;20203;-66
2021/12/23 09:42:04;;;;;;;2.20;1.92;;;-0.30;99.90;;;-0.39;84.86;100634.47;5008310;28;20229;-64
2021/12/23 09:44:31;;;;;;;3.75;2.47;;;-0.20;99.90;;;-0.43;85.53;100632.88;5021883;28;20194;-62
2021/12/23 09:47:02;;;;;;;2.38;2.15;;;-0.20;99.90;;;-0.38;85.34;100628.44;5002442;28;20199;-64
2021/12/23 09:49:30;;;;;;;2.88;1.52;;;-0.20;99.90;;;-0.31;85.21;100632.53;5025993;28;20237;-63
2021/12/23 09:52:03;;;;;;;4.20;1.13;;;-0.20;99.90;;;-0.27;85.03;100618.75;5024367;28;20602;-65
2021/12/23 09:54:35;;;;;;;2.35;1.05;;;-0.10;99.90;;;-0.19;85.02;100609.09;5016867;28;20209;-63
2021/12/23 09:57:03;;;;;;;3.83;2.72;;;0.00;99.90;;;-0.18;85.02;100623.63;5006833;28;20316;-65
2021/12/23 09:59:30;;;;;;;9.32;3.78;;;0.00;99.90;;;-0.10;84.72;100613.97;5019473;28;20201;-65
2021/12/23 10:01:58;;;;;;;6.30;2.83;;;0.10;99.90;;;-0.16;84.86;100619.28;4999461;28;20276;-65
2021/12/23 10:04:25;;;;;;;8.15;3.97;;;0.00;99.90;;;-0.02;84.61;100614.59;5012278;28;20199;-63
2021/12/23 10:06:54;;;;;;;2.55;1.90;;;0.20;99.90;;;0.07;83.63;100626.31;5013145;28;20203;-67
2021/12/23 10:09:40;;;;;;;8.80;3.83;;;0.20;99.90;;;0.15;83.66;100620.97;5013854;28;20203;-67
2021/12/23 10:31:48;;;;;;;7.93;3.60;;;0.90;99.90;;;0.69;81.24;100588.44;5002681;28;20230;-64
2021/12/23 10:37:20;;;;;;;7.68;4.25;;;0.80;99.90;;;0.68;81.89;100582.47;5011087;28;20674;-64
2021/12/23 10:39:50;;;;;;;5.32;3.33;;;0.80;99.90;;;0.68;82.23;100576.53;5016981;28;20229;-64
2021/12/23 10:42:23;;;;;;;5.13;3.53;;;0.90;99.90;;;0.74;82.20;100571.19;5034068;28;20233;-64
2021/12/23 10:45:03;;;;;;;8.65;4.70;;;0.90;99.90;;;0.76;82.40;100559.13;5032813;28;20194;-67
2021/12/23 10:47:45;;;;;;;0.98;0.98;;;0.90;99.90;;;0.77;82.50;100550.50;5009896;28;20599;-63
2021/12/23 10:51:17;;;;;;;3.70;3.00;;;1.00;99.90;;;0.95;82.11;100539.63;5031949;28;20725;-64
2021/12/23 10:59:30;;;;;;;8.13;5.20;;;1.20;99.90;;;1.10;82.02;100535.69;5012486;28;20213;-65
2021/12/23 11:02:15;;;;;;;3.55;2.35;;;1.30;99.90;;;1.11;81.97;100533.06;5025739;28;20249;-67